createdAt,value
2023-05-16T00:02:02.411Z,99560.67
2023-05-16T00:04:29.735Z,99557.41
2023-05-16T00:06:57.256Z,99555.73
2023-05-16T00:09:24.331Z,99556.38
2023-05-16T00:11:51.491Z,99555.38
2023-05-16T00:14:19.990Z,99562.44
2023-05-16T00:16:47.530Z,99560.14
2023-05-16T00:19:15.590Z,99558.44
2023-05-16T00:21:44.894Z,99559.05
2023-05-16T00:24:12.301Z,99562.11
2023-05-16T00:26:39.386Z,99564.54
2023-05-16T00:29:07.169Z,99563.79
2023-05-16T00:31:34.544Z,99572.20
2023-05-16T00:34:01.697Z,99570.39
2023-05-16T00:36:29.237Z,99571.01
2023-05-16T00:38:56.588Z,99571.66
2023-05-16T00:41:23.841Z,99567.24
2023-05-16T00:43:51.181Z,99562.63
2023-05-16T00:46:18.385Z,99559.52
2023-05-16T00:48:45.628Z,99559.45
2023-05-16T00:51:12.804Z,99558.64
2023-05-16T00:53:39.813Z,99559.23
2023-05-16T00:56:07.564Z,99559.31
2023-05-16T00:58:34.753Z,99556.44
2023-05-16T01:01:04.096Z,99561.61
2023-05-16T01:03:31.788Z,99560.63
2023-05-16T01:05:59.944Z,99561.95
2023-05-16T01:08:27.257Z,99566.55
2023-05-16T01:11:08.100Z,99561.05
2023-05-16T01:13:47.544Z,99556.36
2023-05-16T01:16:23.596Z,99553.30
2023-05-16T01:19:00.294Z,99555.10
2023-05-16T01:21:44.404Z,99552.54
2023-05-16T01:24:22.272Z,99553.80
2023-05-16T01:26:50.247Z,99551.31
2023-05-16T01:29:17.833Z,99554.72
2023-05-16T01:31:45.004Z,99549.66
2023-05-16T01:34:13.007Z,99553.66
2023-05-16T01:37:03.224Z,99551.39
2023-05-16T01:39:53.390Z,99548.65
2023-05-16T01:42:20.520Z,99548.96
2023-05-16T01:45:00.728Z,99546.44
2023-05-16T01:47:28.043Z,99542.89
2023-05-16T01:50:10.800Z,99543.71
2023-05-16T01:52:47.990Z,99543.82
2023-05-16T01:55:22.186Z,99542.37
2023-05-16T01:57:49.346Z,99542.94
2023-05-16T02:00:16.655Z,99540.02
2023-05-16T02:02:43.695Z,99536.88
2023-05-16T02:05:10.737Z,99530.40
2023-05-16T02:07:37.993Z,99531.77
2023-05-16T02:10:05.997Z,99524.34
2023-05-16T02:12:35.528Z,99522.50
2023-05-16T02:15:02.917Z,99520.87
2023-05-16T02:17:30.316Z,99520.09
2023-05-16T02:19:58.025Z,99516.19
2023-05-16T02:22:25.239Z,99512.78
2023-05-16T02:24:54.184Z,99513.55
2023-05-16T02:27:21.387Z,99517.83
2023-05-16T02:29:48.566Z,99516.08
2023-05-16T02:32:15.848Z,99520.79
2023-05-16T02:34:43.373Z,99520.77
2023-05-16T02:37:13.116Z,99525.30
2023-05-16T02:39:40.598Z,99529.30
2023-05-16T02:42:07.674Z,99527.98
2023-05-16T02:44:34.933Z,99527.91
2023-05-16T02:47:02.006Z,99529.20
2023-05-16T02:49:29.129Z,99529.23
2023-05-16T02:51:56.185Z,99530.48
2023-05-16T02:54:23.230Z,99530.95
2023-05-16T02:56:50.464Z,99529.31
2023-05-16T02:59:19.816Z,99529.77
2023-05-16T03:01:47.106Z,99528.34
2023-05-16T03:04:14.411Z,99530.20
2023-05-16T03:06:41.604Z,99531.19
2023-05-16T03:09:08.943Z,99529.19
2023-05-16T03:11:37.006Z,99531.23
2023-05-16T03:14:04.276Z,99528.06
2023-05-16T03:16:31.603Z,99528.25
2023-05-16T03:18:58.776Z,99527.47
2023-05-16T03:21:27.487Z,99524.45
2023-05-16T03:23:55.364Z,99519.09
2023-05-16T03:26:22.946Z,99513.06
2023-05-16T03:28:51.550Z,99512.33
2023-05-16T03:31:18.941Z,99512.39
2023-05-16T03:33:46.428Z,99511.38
2023-05-16T03:36:13.494Z,99511.56
2023-05-16T03:38:40.859Z,99511.04
2023-05-16T03:41:08.247Z,99515.77
2023-05-16T03:43:35.337Z,99520.70
2023-05-16T03:46:02.794Z,99524.74
2023-05-16T03:48:29.976Z,99527.18
2023-05-16T03:50:57.408Z,99529.20
2023-05-16T03:53:24.487Z,99531.93
2023-05-16T03:55:51.673Z,99536.92
2023-05-16T03:58:18.938Z,99537.88
2023-05-16T04:00:47.300Z,99545.05
2023-05-16T04:03:14.374Z,99547.74
2023-05-16T04:05:41.466Z,99556.34
2023-05-16T04:08:08.557Z,99560.42
2023-05-16T04:10:36.587Z,99561.32
2023-05-16T04:13:03.573Z,99568.48
2023-05-16T04:15:30.748Z,99570.00
2023-05-16T04:17:58.147Z,99577.45
2023-05-16T04:20:25.421Z,99581.76
2023-05-16T04:22:52.563Z,99583.55
2023-05-16T04:25:19.689Z,99584.40
2023-05-16T04:27:46.991Z,99588.66
2023-05-16T04:30:14.748Z,99593.96
2023-05-16T04:32:42.084Z,99597.73
2023-05-16T04:35:09.571Z,99593.76
2023-05-16T04:37:37.022Z,99594.34
2023-05-16T04:40:04.498Z,99595.02
2023-05-16T04:42:32.162Z,99597.98
2023-05-16T04:44:59.269Z,99601.55
2023-05-16T04:47:26.668Z,99607.84
2023-05-16T04:49:53.750Z,99608.75
2023-05-16T04:52:21.160Z,99602.22
2023-05-16T04:54:51.205Z,99600.52
2023-05-16T04:57:18.440Z,99599.12
2023-05-16T04:59:45.613Z,99595.60
2023-05-16T05:02:12.863Z,99596.33
2023-05-16T05:04:40.054Z,99597.22
2023-05-16T05:07:08.420Z,99592.88
2023-05-16T05:09:35.551Z,99594.00
2023-05-16T05:12:02.712Z,99591.52
2023-05-16T05:14:29.882Z,99585.21
2023-05-16T05:16:57.328Z,99587.36
2023-05-16T05:19:24.452Z,99594.44
2023-05-16T05:21:51.570Z,99592.80
2023-05-16T05:24:19.312Z,99591.36
2023-05-16T05:26:46.296Z,99592.26
2023-05-16T05:29:13.510Z,99590.96
2023-05-16T05:31:41.039Z,99589.15
2023-05-16T05:34:08.127Z,99592.35
2023-05-16T05:36:35.348Z,99592.10
2023-05-16T05:39:02.397Z,99596.45
2023-05-16T05:41:29.909Z,99609.29
2023-05-16T05:43:56.995Z,99614.75
2023-05-16T05:46:24.957Z,99614.34
2023-05-16T05:48:52.232Z,99619.51
2023-05-16T05:51:19.645Z,99618.94
2023-05-16T05:53:47.051Z,99619.80
2023-05-16T05:56:14.170Z,99615.23
2023-05-16T05:58:42.226Z,99612.33
2023-05-16T06:01:11.163Z,99603.11
2023-05-16T06:03:38.632Z,99599.08
2023-05-16T06:06:06.326Z,99602.02
2023-05-16T06:08:33.372Z,99604.27
2023-05-16T06:11:00.789Z,99602.69
2023-05-16T06:13:28.220Z,99598.27
2023-05-16T06:15:55.317Z,99596.32
2023-05-16T06:18:22.527Z,99594.67
2023-05-16T06:20:49.680Z,99593.50
2023-05-16T06:23:17.276Z,99595.27
2023-05-16T06:25:45.179Z,99596.84
2023-05-16T06:28:12.254Z,99593.94
2023-05-16T06:30:39.256Z,99590.39
2023-05-16T06:33:06.543Z,99585.31
2023-05-16T06:35:33.663Z,99578.92
2023-05-16T06:38:00.793Z,99577.81
2023-05-16T06:40:27.984Z,99578.73
2023-05-16T06:42:55.220Z,99575.37
2023-05-16T06:45:22.620Z,99565.10
2023-05-16T06:47:49.870Z,99565.67
2023-05-16T06:50:17.805Z,99574.79
2023-05-16T06:52:44.805Z,99576.06
2023-05-16T06:55:12.628Z,99572.83
2023-05-16T06:57:39.863Z,99564.62
2023-05-16T07:00:08.587Z,99567.28
2023-05-16T07:02:36.000Z,99568.09
2023-05-16T07:05:03.444Z,99569.95
2023-05-16T07:07:30.609Z,99571.17
2023-05-16T07:09:57.785Z,99571.52
2023-05-16T07:12:24.963Z,99574.77
2023-05-16T07:14:52.254Z,99576.90
2023-05-16T07:17:19.473Z,99574.10
2023-05-16T07:19:46.820Z,99568.73
2023-05-16T07:22:13.978Z,99571.30
2023-05-16T07:24:41.170Z,99570.90
2023-05-16T07:27:08.720Z,99575.20
2023-05-16T07:29:37.574Z,99571.99
2023-05-16T07:32:05.327Z,99571.91
2023-05-16T07:34:32.512Z,99568.73
2023-05-16T07:36:59.817Z,99566.27
2023-05-16T07:39:27.122Z,99566.90
2023-05-16T07:41:54.345Z,99574.36
2023-05-16T07:44:21.832Z,99580.17
2023-05-16T07:46:48.983Z,99585.24
2023-05-16T07:49:16.444Z,99592.36
2023-05-16T07:51:44.004Z,99595.63
2023-05-16T07:54:11.153Z,99599.23
2023-05-16T07:56:38.371Z,99598.37
2023-05-16T07:59:06.243Z,99593.31
2023-05-16T08:01:33.314Z,99579.71
2023-05-16T08:04:00.854Z,99563.48
2023-05-16T08:06:28.226Z,99563.76
2023-05-16T08:08:55.529Z,99576.01
2023-05-16T08:11:22.745Z,99595.14
2023-05-16T08:13:50.350Z,99600.48
2023-05-16T08:16:17.721Z,99608.16
2023-05-16T08:18:45.011Z,99614.27
2023-05-16T08:21:14.310Z,99616.85
2023-05-16T08:23:41.435Z,99618.30
2023-05-16T08:26:08.740Z,99618.23
2023-05-16T08:28:36.329Z,99619.48
2023-05-16T08:31:03.351Z,99620.54
2023-05-16T08:33:30.607Z,99612.77
2023-05-16T08:35:57.691Z,99606.67
2023-05-16T08:38:24.830Z,99602.50
2023-05-16T08:40:52.092Z,99600.38
2023-05-16T08:43:19.343Z,99603.55
2023-05-16T08:45:46.548Z,99603.37
2023-05-16T08:48:13.726Z,99602.17
2023-05-16T08:50:42.933Z,99599.30
2023-05-16T08:53:10.583Z,99600.27
2023-05-16T08:55:38.055Z,99596.80
2023-05-16T08:58:05.373Z,99592.77
2023-05-16T09:00:32.644Z,99592.27
2023-05-16T09:02:59.879Z,99587.59
2023-05-16T09:05:28.086Z,99588.82
2023-05-16T09:07:55.469Z,99589.90
2023-05-16T09:10:22.941Z,99590.34
2023-05-16T09:12:50.347Z,99591.70
2023-05-16T09:15:18.628Z,99594.73
2023-05-16T09:17:47.074Z,99595.63
2023-05-16T09:20:18.774Z,99603.98
2023-05-16T09:22:53.192Z,99597.84
2023-05-16T09:25:29.578Z,99602.45
2023-05-16T09:28:02.776Z,99605.08
2023-05-16T09:30:32.258Z,99600.57
2023-05-16T09:32:59.686Z,99600.08
2023-05-16T09:37:57.235Z,99604.05
2023-05-16T09:40:24.600Z,99606.25
2023-05-16T09:43:07.277Z,99608.04
2023-05-16T09:48:28.803Z,99611.11
2023-05-16T09:50:57.181Z,99610.41
2023-05-16T09:53:27.941Z,99613.90
2023-05-16T09:56:05.304Z,99615.30
2023-05-16T09:58:33.160Z,99618.88
2023-05-16T10:01:00.348Z,99624.84
2023-05-16T10:03:28.387Z,99617.58
2023-05-16T10:05:56.114Z,99613.44
2023-05-16T10:08:26.706Z,99617.05
2023-05-16T10:10:55.511Z,99614.09
2023-05-16T10:13:26.863Z,99617.96
2023-05-16T10:15:55.976Z,99615.57
2023-05-16T10:18:23.678Z,99613.45
2023-05-16T10:20:53.294Z,99614.37
2023-05-16T10:23:21.385Z,99610.00
2023-05-16T10:25:49.355Z,99615.30
2023-05-16T10:28:16.963Z,99613.41
2023-05-16T10:30:46.043Z,99608.50
2023-05-16T10:33:17.559Z,99604.89
2023-05-16T10:35:45.231Z,99597.83
2023-05-16T10:38:13.977Z,99598.58
2023-05-16T10:40:41.361Z,99603.66
2023-05-16T10:43:09.587Z,99602.45
2023-05-16T10:45:42.051Z,99593.91
2023-05-16T10:48:10.956Z,99596.68
2023-05-16T10:50:39.254Z,99596.08
2023-05-16T10:53:19.003Z,99589.88
2023-05-16T10:56:01.786Z,99584.31
2023-05-16T10:58:35.400Z,99587.30
2023-05-16T11:01:41.620Z,99592.16
2023-05-16T11:04:12.614Z,99589.11
2023-05-16T11:06:42.586Z,99587.05
2023-05-16T11:09:15.738Z,99581.27
2023-05-16T11:11:49.646Z,99582.84
2023-05-16T11:14:42.655Z,99578.05
2023-05-16T11:17:22.152Z,99581.38
2023-05-16T11:19:56.096Z,99576.86
2023-05-16T11:22:25.243Z,99576.05
2023-05-16T11:25:02.159Z,99576.67
2023-05-16T11:27:30.050Z,99574.69
2023-05-16T11:30:06.581Z,99569.10
2023-05-16T11:32:35.034Z,99566.92
2023-05-16T11:35:02.562Z,99562.92
2023-05-16T11:37:29.943Z,99563.80
2023-05-16T11:40:01.633Z,99563.05
2023-05-16T11:42:34.758Z,99565.89
2023-05-16T11:45:09.401Z,99567.17
2023-05-16T11:47:37.601Z,99566.74
2023-05-16T11:50:16.316Z,99571.09
2023-05-16T11:52:44.855Z,99567.27
2023-05-16T11:55:12.081Z,99563.93
2023-05-16T11:57:39.886Z,99566.09
2023-05-16T12:00:18.687Z,99562.77
2023-05-16T12:02:47.992Z,99560.37
2023-05-16T12:05:16.085Z,99564.05
2023-05-16T12:07:44.885Z,99564.12
2023-05-16T12:10:14.080Z,99564.72
2023-05-16T12:12:42.606Z,99560.89
2023-05-16T12:15:10.039Z,99560.23
2023-05-16T12:17:37.820Z,99560.35
2023-05-16T12:20:11.841Z,99557.50
2023-05-16T12:22:43.437Z,99560.07
2023-05-16T12:25:24.334Z,99562.34
2023-05-16T12:27:53.584Z,99560.30
2023-05-16T12:30:23.195Z,99557.42
2023-05-16T12:33:07.667Z,99558.52
2023-05-16T12:35:35.859Z,99559.79
2023-05-16T12:38:07.984Z,99558.19
2023-05-16T12:40:37.320Z,99559.09
2023-05-16T12:43:04.691Z,99561.16
2023-05-16T12:45:35.224Z,99560.06
2023-05-16T12:48:09.113Z,99559.98
2023-05-16T12:50:37.098Z,99557.56
2023-05-16T12:53:04.790Z,99560.10
2023-05-16T12:55:32.428Z,99558.39
2023-05-16T12:57:59.581Z,99557.88
2023-05-16T13:00:27.181Z,99554.35
2023-05-16T13:02:54.883Z,99550.30
2023-05-16T13:05:23.665Z,99549.27
2023-05-16T13:07:53.819Z,99550.48
2023-05-16T13:10:21.091Z,99553.59
2023-05-16T13:12:48.307Z,99550.23
2023-05-16T13:15:15.400Z,99551.02
2023-05-16T13:17:47.853Z,99547.34
2023-05-16T13:20:15.517Z,99545.27
2023-05-16T13:22:43.287Z,99542.52
2023-05-16T13:25:10.963Z,99541.45
2023-05-16T13:27:38.430Z,99539.48
2023-05-16T13:30:06.299Z,99537.52
2023-05-16T13:32:34.193Z,99538.83
2023-05-16T13:35:01.339Z,99537.84
2023-05-16T13:37:28.544Z,99531.26
2023-05-16T13:39:56.340Z,99532.67
2023-05-16T13:42:26.582Z,99529.19
2023-05-16T13:44:53.804Z,99526.08
2023-05-16T13:47:21.103Z,99527.50
2023-05-16T13:49:49.073Z,99527.56
2023-05-16T13:52:16.667Z,99530.02
2023-05-16T13:54:43.871Z,99529.55
2023-05-16T13:57:11.785Z,99530.98
2023-05-16T14:00:04.008Z,99526.19
2023-05-16T14:02:26.951Z,99527.17
2023-05-16T14:04:54.345Z,99530.02
2023-05-16T14:07:21.794Z,99535.83
2023-05-16T14:09:49.124Z,99543.08
2023-05-16T14:12:16.263Z,99539.82
2023-05-16T14:14:43.340Z,99543.45
2023-05-16T14:17:10.657Z,99539.08
2023-05-16T14:19:37.836Z,99537.95
2023-05-16T14:22:05.284Z,99542.23
2023-05-16T14:24:32.630Z,99542.75
2023-05-16T14:27:00.601Z,99546.16
2023-05-16T14:29:28.550Z,99546.36
2023-05-16T14:31:56.939Z,99540.11
2023-05-16T14:34:24.139Z,99546.50
2023-05-16T14:36:52.182Z,99543.17
2023-05-16T14:39:19.467Z,99544.30
2023-05-16T14:41:47.074Z,99541.73
2023-05-16T14:44:14.265Z,99541.45
2023-05-16T14:46:41.758Z,99537.41
2023-05-16T14:49:09.377Z,99542.73
2023-05-16T14:51:36.658Z,99542.73
2023-05-16T14:54:04.397Z,99542.66
2023-05-16T14:56:32.261Z,99540.96
2023-05-16T14:59:00.523Z,99544.05
2023-05-16T15:01:27.873Z,99541.09
2023-05-16T15:03:56.398Z,99544.36
2023-05-16T15:06:27.070Z,99542.88
2023-05-16T15:08:55.251Z,99544.45
2023-05-16T15:11:24.828Z,99537.89
2023-05-16T15:13:52.039Z,99537.45
2023-05-16T15:16:19.720Z,99540.79
2023-05-16T15:18:47.045Z,99536.91
2023-05-16T15:21:14.382Z,99538.98
2023-05-16T15:23:42.884Z,99540.52
2023-05-16T15:26:09.971Z,99537.80
2023-05-16T15:28:37.168Z,99537.98
2023-05-16T15:31:07.365Z,99539.48
2023-05-16T15:33:34.663Z,99537.99
2023-05-16T15:36:01.791Z,99535.16
2023-05-16T15:38:29.358Z,99539.64
2023-05-16T15:41:14.211Z,99538.30
2023-05-16T15:43:44.183Z,99541.62
2023-05-16T15:46:11.577Z,99537.45
2023-05-16T15:48:42.990Z,99533.55
2023-05-16T15:51:11.624Z,99537.17
2023-05-16T15:53:38.858Z,99537.09
2023-05-16T15:56:07.197Z,99534.77
2023-05-16T15:58:34.747Z,99539.99
2023-05-16T16:01:02.446Z,99537.77
2023-05-16T16:03:30.001Z,99538.69
2023-05-16T16:05:57.673Z,99540.11
2023-05-16T16:08:25.568Z,99539.96
2023-05-16T16:10:52.552Z,99541.58
2023-05-16T16:13:19.898Z,99538.18
2023-05-16T16:15:47.074Z,99542.35
2023-05-16T16:18:14.631Z,99543.65
2023-05-16T16:20:42.596Z,99549.73
2023-05-16T16:23:10.160Z,99548.90
2023-05-16T16:25:37.353Z,99550.86
2023-05-16T16:28:05.028Z,99550.83
2023-05-16T16:30:32.098Z,99547.28
2023-05-16T16:32:59.447Z,99545.52
2023-05-16T16:35:27.250Z,99545.55
2023-05-16T16:38:06.250Z,99539.43
2023-05-16T16:40:34.484Z,99542.77
2023-05-16T16:43:02.657Z,99542.43
2023-05-16T16:45:30.291Z,99548.89
2023-05-16T16:47:58.209Z,99547.17
2023-05-16T16:50:25.553Z,99548.87
2023-05-16T16:52:54.016Z,99553.05
2023-05-16T16:55:21.593Z,99553.05
2023-05-16T16:57:48.746Z,99554.48
2023-05-16T17:00:16.412Z,99553.50
2023-05-16T17:02:43.871Z,99560.03
2023-05-16T17:05:11.162Z,99556.51
2023-05-16T17:07:38.490Z,99554.57
2023-05-16T17:10:08.070Z,99553.55
2023-05-16T17:12:35.296Z,99552.39
2023-05-16T17:15:02.564Z,99550.98
2023-05-16T17:17:30.044Z,99553.38
2023-05-16T17:19:57.532Z,99552.45
2023-05-16T17:22:24.727Z,99549.92
2023-05-16T17:24:52.078Z,99548.75
2023-05-16T17:27:19.460Z,99545.77
2023-05-16T17:29:46.533Z,99544.60
2023-05-16T17:32:13.997Z,99546.10
2023-05-16T17:34:41.126Z,99545.73
2023-05-16T17:37:10.728Z,99547.70
2023-05-16T17:39:38.148Z,99550.30
2023-05-16T17:42:09.432Z,99555.58
2023-05-16T17:44:37.020Z,99556.95
2023-05-16T17:47:04.381Z,99562.98
2023-05-16T17:49:31.682Z,99564.16
2023-05-16T17:51:59.330Z,99568.64
2023-05-16T17:54:30.852Z,99568.73
2023-05-16T17:56:58.220Z,99567.61
2023-05-16T17:59:27.595Z,99565.68
2023-05-16T18:01:56.476Z,99563.23
2023-05-16T18:04:24.134Z,99564.63
2023-05-16T18:06:54.699Z,99568.81
2023-05-16T18:09:22.596Z,99570.74
2023-05-16T18:11:51.040Z,99568.98
2023-05-16T18:14:18.223Z,99571.09
2023-05-16T18:16:45.447Z,99572.02
2023-05-16T18:19:12.837Z,99573.67
2023-05-16T18:21:41.287Z,99576.42
2023-05-16T18:24:08.814Z,99576.55
2023-05-16T18:26:36.439Z,99578.52
2023-05-16T18:29:03.902Z,99579.71
2023-05-16T18:31:33.913Z,99580.14
2023-05-16T18:34:04.103Z,99579.39
2023-05-16T18:36:31.476Z,99580.70
2023-05-16T18:38:58.906Z,99581.84
2023-05-16T18:41:26.465Z,99588.27
2023-05-16T18:43:53.590Z,99590.00
2023-05-16T18:46:20.895Z,99588.79
2023-05-16T18:48:48.096Z,99589.34
2023-05-16T18:51:15.260Z,99591.06
2023-05-16T18:53:42.608Z,99585.06
2023-05-16T18:56:11.758Z,99585.45
2023-05-16T18:58:39.245Z,99581.52
2023-05-16T19:01:06.543Z,99584.37
2023-05-16T19:03:33.865Z,99583.73
2023-05-16T19:06:01.180Z,99584.48
2023-05-16T19:08:36.753Z,99585.70
2023-05-16T19:11:14.461Z,99586.06
2023-05-16T19:13:41.821Z,99588.10
2023-05-16T19:16:09.369Z,99584.75
2023-05-16T19:18:37.499Z,99584.84
2023-05-16T19:21:04.949Z,99586.34
2023-05-16T19:23:32.422Z,99583.69
2023-05-16T19:26:00.501Z,99580.41
2023-05-16T19:28:27.682Z,99584.52
2023-05-16T19:30:54.753Z,99583.76
2023-05-16T19:33:22.004Z,99583.71
2023-05-16T19:35:51.718Z,99580.95
2023-05-16T19:38:20.004Z,99579.85
2023-05-16T19:40:47.587Z,99581.15
2023-05-16T19:43:15.028Z,99581.67
2023-05-16T19:45:42.273Z,99583.05
2023-05-16T19:48:09.737Z,99586.56
2023-05-16T19:50:37.080Z,99585.10
2023-05-16T19:53:04.322Z,99590.77
2023-05-16T19:55:31.997Z,99586.61
2023-05-16T19:57:59.518Z,99584.42
2023-05-16T20:00:26.885Z,99581.13
2023-05-16T20:02:54.151Z,99584.65
2023-05-16T20:05:23.574Z,99576.99
2023-05-16T20:07:50.889Z,99584.27
2023-05-16T20:10:19.774Z,99585.70
2023-05-16T20:12:48.704Z,99584.61
2023-05-16T20:15:16.495Z,99583.91
2023-05-16T20:17:43.674Z,99581.73
2023-05-16T20:20:11.093Z,99581.25
2023-05-16T20:22:42.011Z,99580.75
2023-05-16T20:25:10.247Z,99577.22
2023-05-16T20:27:38.143Z,99579.77
2023-05-16T20:30:06.840Z,99585.27
2023-05-16T20:32:34.425Z,99579.33
2023-05-16T20:35:04.616Z,99586.07
2023-05-16T20:37:32.034Z,99587.12
2023-05-16T20:39:59.110Z,99584.58
2023-05-16T20:42:26.624Z,99581.21
2023-05-16T20:44:53.646Z,99584.55
2023-05-16T20:47:20.639Z,99582.38
2023-05-16T20:49:47.869Z,99581.79
2023-05-16T20:52:14.957Z,99587.02
2023-05-16T20:54:42.186Z,99585.16
2023-05-16T20:57:09.481Z,99588.83
2023-05-16T20:59:37.877Z,99585.80
2023-05-16T21:02:06.337Z,99583.65
2023-05-16T21:04:33.646Z,99582.15
2023-05-16T21:07:00.822Z,99579.98
2023-05-16T21:09:27.930Z,99575.44
2023-05-16T21:11:55.101Z,99576.20
2023-05-16T21:14:22.440Z,99578.52
2023-05-16T21:16:49.530Z,99578.41
2023-05-16T21:19:16.952Z,99577.71
2023-05-16T21:21:44.200Z,99581.03
2023-05-16T21:24:11.299Z,99579.14
2023-05-16T21:26:39.046Z,99582.02
2023-05-16T21:29:06.285Z,99582.88
2023-05-16T21:31:33.326Z,99581.66
2023-05-16T21:34:01.065Z,99582.45
2023-05-16T21:36:28.190Z,99579.07
2023-05-16T21:38:55.502Z,99580.26
2023-05-16T21:41:23.407Z,99581.70
2023-05-16T21:43:50.418Z,99579.43
2023-05-16T21:46:17.469Z,99576.45
2023-05-16T21:48:44.733Z,99575.11
2023-05-16T21:51:12.189Z,99576.52
2023-05-16T21:53:39.366Z,99572.31
2023-05-16T21:56:06.600Z,99574.10
2023-05-16T21:58:33.737Z,99576.56
2023-05-16T22:01:00.765Z,99572.70
2023-05-16T22:04:37.641Z,99574.90
2023-05-16T22:07:05.250Z,99576.26
2023-05-16T22:09:32.330Z,99576.69
2023-05-16T22:11:59.750Z,99576.02
2023-05-16T22:14:26.899Z,99576.50
2023-05-16T22:16:54.180Z,99577.28
2023-05-16T22:19:21.373Z,99579.17
2023-05-16T22:21:48.430Z,99580.55
2023-05-16T22:24:15.514Z,99582.50
2023-05-16T22:26:42.718Z,99586.42
2023-05-16T22:29:10.175Z,99584.89
2023-05-16T22:31:37.331Z,99586.96
2023-05-16T22:34:04.783Z,99586.91
2023-05-16T22:36:32.040Z,99588.02
2023-05-16T22:38:59.373Z,99593.57
2023-05-16T22:41:29.212Z,99593.87
2023-05-16T22:43:56.299Z,99595.32
2023-05-16T22:46:23.670Z,99594.05
2023-05-16T22:48:50.833Z,99598.08
2023-05-16T22:51:18.173Z,99595.73
2023-05-16T22:53:45.433Z,99597.55
2023-05-16T22:56:12.609Z,99597.21
2023-05-16T22:58:39.812Z,99594.86
2023-05-16T23:01:07.038Z,99596.35
2023-05-16T23:03:34.436Z,99599.63
2023-05-16T23:06:01.859Z,99598.31
2023-05-16T23:08:29.040Z,99593.14
2023-05-16T23:10:56.300Z,99596.45
2023-05-16T23:13:23.600Z,99599.02
2023-05-16T23:15:50.670Z,99600.86
2023-05-16T23:18:18.156Z,99597.56
2023-05-16T23:20:45.432Z,99592.46
2023-05-16T23:23:12.499Z,99593.73
2023-05-16T23:25:39.634Z,99593.27
2023-05-16T23:28:06.685Z,99596.11
2023-05-16T23:30:34.409Z,99599.17
2023-05-16T23:33:01.645Z,99598.31
2023-05-16T23:35:29.070Z,99599.95
2023-05-16T23:37:56.395Z,99600.27
2023-05-16T23:40:23.572Z,99600.26
2023-05-16T23:42:51.468Z,99600.40
2023-05-16T23:45:18.490Z,99602.29
2023-05-16T23:47:46.179Z,99602.29
2023-05-16T23:50:13.413Z,99601.61
2023-05-16T23:52:40.512Z,99602.05
2023-05-16T23:55:08.248Z,99604.67
2023-05-16T23:57:35.483Z,99600.38
